Time;durP1;ratioP1;P1;durP2;ratioP2;P2;SDS_P1;SDS_P2;PMS_P1;PMS_P2;Temp;Humidity;BMP_temperature;BMP_pressure;BME280_temperature;BME280_humidity;BME280_pressure;Samples;Min_cycle;Max_cycle;Signal;HPM_P1;HPM_P2
2022/01/11 00:00:29;;;;;;;269.80;41.58;;;-0.10;99.90;;;;;;5125744;27;20474;-80
2022/01/11 00:02:56;;;;;;;253.45;44.17;;;-0.10;99.90;;;;;;5118938;27;20083;-79
2022/01/11 00:05:26;;;;;;;316.40;46.70;;;-0.10;99.90;;;;;;5126459;28;20090;-79
2022/01/11 00:07:53;;;;;;;427.70;60.78;;;-0.10;99.90;;;;;;5127759;27;20115;-78
2022/01/11 00:10:26;;;;;;;243.75;42.92;;;-0.20;99.90;;;;;;5132947;27;20047;-78
2022/01/11 00:12:53;;;;;;;279.75;45.80;;;-0.20;99.90;;;;;;5118541;28;20130;-79
2022/01/11 00:15:19;;;;;;;316.08;45.58;;;-0.20;99.90;;;;;;5146635;27;20051;-79
2022/01/11 00:17:46;;;;;;;359.40;50.72;;;-0.20;99.90;;;;;;5130643;27;20046;-79
2022/01/11 00:20:15;;;;;;;254.20;45.58;;;-0.20;99.90;;;;;;5122407;27;20046;-78
2022/01/11 00:24:26;;;;;;;222.18;38.92;;;-0.20;99.90;;;;;;5141874;27;20125;-79
2022/01/11 00:25:27;;;;;;;295.80;46.33;;;-0.20;99.90;;;;;;5126847;27;20091;-80
2022/01/11 00:27:54;;;;;;;297.40;43.45;;;-0.20;99.90;;;;;;5131286;27;20058;-78
2022/01/11 00:30:22;;;;;;;182.60;36.20;;;-0.20;99.90;;;;;;5128048;27;20042;-79
2022/01/11 00:32:52;;;;;;;228.88;37.97;;;-0.20;99.90;;;;;;5126066;27;20616;-79
2022/01/11 00:35:22;;;;;;;183.52;33.67;;;-0.20;99.90;;;;;;5144524;27;20498;-79
2022/01/11 00:37:49;;;;;;;;;;;-0.30;99.90;;;;;;5153489;27;20103;-78
2022/01/11 00:40:16;;;;;;;195.70;35.90;;;-0.20;99.90;;;;;;5133033;27;19923;-79
2022/01/11 00:42:44;;;;;;;115.75;34.17;;;-0.30;99.90;;;;;;5127561;27;20043;-79
2022/01/11 00:45:11;;;;;;;213.68;34.22;;;-0.30;99.90;;;;;;5152422;27;20103;-79
2022/01/11 00:47:37;;;;;;;248.18;36.65;;;-0.30;99.90;;;;;;5127979;27;20062;-79
2022/01/11 00:50:04;;;;;;;94.88;28.17;;;-0.30;99.90;;;;;;5119357;27;20043;-78
2022/01/11 00:52:31;;;;;;;296.60;39.55;;;-0.30;99.90;;;;;;5122250;27;20055;-80
2022/01/11 00:54:57;;;;;;;184.73;34.47;;;-0.30;99.90;;;;;;5128073;27;20035;-79
2022/01/11 00:57:24;;;;;;;102.15;29.40;;;-0.30;99.90;;;;;;5125998;27;20478;-79
2022/01/11 00:59:50;;;;;;;218.82;34.58;;;-0.30;99.90;;;;;;5116905;27;20051;-79
2022/01/11 01:02:17;;;;;;;99.85;27.80;;;-0.40;99.90;;;;;;5121499;27;20050;-79
2022/01/11 01:04:43;;;;;;;272.35;38.30;;;-0.30;99.90;;;;;;5142069;27;20510;-79
2022/01/11 01:07:10;;;;;;;157.25;31.35;;;-0.30;99.90;;;;;;5123902;27;20040;-78
2022/01/11 01:09:44;;;;;;;131.73;32.30;;;-0.40;99.90;;;;;;5127021;27;20061;-79
2022/01/11 01:12:11;;;;;;;314.17;44.53;;;-0.40;99.90;;;;;;5130608;27;20043;-79
2022/01/11 01:14:37;;;;;;;231.75;38.85;;;-0.40;99.90;;;;;;5121947;27;20043;-80
2022/01/11 01:17:04;;;;;;;89.55;27.77;;;-0.40;99.90;;;;;;5132526;27;20043;-79
2022/01/11 01:19:31;;;;;;;219.10;36.85;;;-0.40;99.90;;;;;;5127851;27;20062;-79
2022/01/11 01:21:57;;;;;;;92.32;28.83;;;-0.40;99.90;;;;;;5128871;27;20230;-79
2022/01/11 01:24:24;;;;;;;213.35;36.42;;;-0.40;99.90;;;;;;5119976;27;20131;-79
2022/01/11 01:26:50;;;;;;;209.27;39.65;;;-0.30;99.90;;;;;;5117469;27;20047;-79
2022/01/11 01:29:17;;;;;;;152.75;35.60;;;-0.40;99.90;;;;;;5137155;27;20050;-78
2022/01/11 01:31:43;;;;;;;100.18;30.40;;;-0.30;99.90;;;;;;5117614;27;20051;-78
2022/01/11 01:34:10;;;;;;;115.28;28.80;;;-0.30;99.90;;;;;;5135547;27;20039;-79
2022/01/11 01:36:36;;;;;;;142.50;31.48;;;-0.30;99.90;;;;;;5126725;27;20047;-80
2022/01/11 01:39:03;;;;;;;149.55;32.63;;;-0.40;99.90;;;;;;5127240;27;20050;-79
2022/01/11 01:41:30;;;;;;;218.73;38.17;;;-0.30;99.90;;;;;;5149189;27;20050;-79
2022/01/11 01:43:56;;;;;;;226.60;35.80;;;-0.30;99.90;;;;;;5130673;27;20078;-79
2022/01/11 01:46:23;;;;;;;312.33;42.25;;;-0.30;99.90;;;;;;5124149;27;20050;-79
2022/01/11 01:48:49;;;;;;;259.38;36.80;;;-0.30;99.90;;;;;;5120094;27;20051;-80
2022/01/11 01:51:16;;;;;;;234.45;38.80;;;-0.40;99.90;;;;;;5129738;27;20039;-79
2022/01/11 01:53:42;;;;;;;412.52;52.72;;;-0.40;99.90;;;;;;5126231;27;20050;-80
2022/01/11 01:56:09;;;;;;;221.48;35.17;;;-0.40;99.90;;;;;;5125348;27;20051;-80
2022/01/11 01:58:37;;;;;;;240.93;35.35;;;-0.40;99.90;;;;;;5134249;27;20051;-80
2022/01/11 02:01:04;;;;;;;234.27;35.25;;;-0.40;99.90;;;;;;5134436;27;20220;-80
2022/01/11 02:03:31;;;;;;;224.85;33.72;;;-0.40;99.90;;;;;;5122146;27;20047;-80
2022/01/11 02:05:58;;;;;;;263.67;37.17;;;-0.50;99.90;;;;;;5146824;27;20062;-79
2022/01/11 02:08:24;;;;;;;184.15;33.08;;;-0.40;99.90;;;;;;5127359;27;20496;-80
2022/01/11 02:10:51;;;;;;;318.90;41.70;;;-0.40;99.90;;;;;;5117092;27;20478;-80
2022/01/11 02:13:18;;;;;;;120.53;28.20;;;-0.40;99.90;;;;;;5134586;27;20424;-80
2022/01/11 02:15:44;;;;;;;145.90;32.28;;;-0.40;99.90;;;;;;5123509;27;20398;-80
2022/01/11 02:18:11;;;;;;;207.15;34.78;;;-0.50;99.90;;;;;;5131320;27;20051;-80
2022/01/11 02:20:37;;;;;;;421.88;52.08;;;-0.50;99.90;;;;;;5132425;27;20049;-79
2022/01/11 02:23:04;;;;;;;102.03;28.92;;;-0.50;99.90;;;;;;5117557;27;20054;-80
2022/01/11 02:25:30;;;;;;;379.67;44.80;;;-0.50;99.90;;;;;;5116784;27;20048;-80
2022/01/11 02:27:57;;;;;;;182.38;31.42;;;-0.50;99.90;;;;;;5126308;27;20126;-80
2022/01/11 02:30:23;;;;;;;341.85;45.83;;;-0.50;99.90;;;;;;5129261;27;20050;-79
2022/01/11 02:32:50;;;;;;;220.52;34.42;;;-0.60;99.90;;;;;;5132056;27;20053;-80
2022/01/11 02:35:17;;;;;;;254.52;38.10;;;-0.60;99.90;;;;;;5132264;27;20064;-80
2022/01/11 02:37:43;;;;;;;224.95;33.90;;;-0.60;99.90;;;;;;5126405;27;20048;-80
2022/01/11 02:40:10;;;;;;;282.60;43.08;;;-0.60;99.90;;;;;;5125543;27;20074;-80
2022/01/11 02:42:36;;;;;;;97.85;28.45;;;-0.60;99.90;;;;;;5119113;27;20071;-80
2022/01/11 02:45:03;;;;;;;331.80;39.38;;;-0.60;99.90;;;;;;5119100;27;20048;-80
2022/01/11 02:47:29;;;;;;;330.08;42.42;;;-0.60;99.90;;;;;;5117331;27;20043;-80
2022/01/11 02:49:56;;;;;;;182.57;32.22;;;-0.70;99.90;;;;;;5131348;27;20047;-80
2022/01/11 02:52:23;;;;;;;255.40;38.30;;;-0.60;99.90;;;;;;5117762;27;20063;-80
2022/01/11 02:54:49;;;;;;;150.95;32.15;;;-0.60;99.90;;;;;;5122755;27;20051;-81
2022/01/11 02:57:16;;;;;;;270.00;38.88;;;-0.50;99.90;;;;;;5117107;27;20047;-80
2022/01/11 02:59:42;;;;;;;320.50;45.53;;;-0.50;99.90;;;;;;5122580;27;20044;-80
2022/01/11 03:02:09;;;;;;;228.75;38.17;;;-0.50;99.90;;;;;;5124299;27;20055;-80
2022/01/11 03:04:35;;;;;;;215.88;37.00;;;-0.60;99.90;;;;;;5121047;27;20058;-80
2022/01/11 03:07:02;;;;;;;194.05;35.20;;;-0.50;99.90;;;;;;5114820;27;20048;-80
2022/01/11 03:09:33;;;;;;;365.25;48.60;;;-0.50;99.90;;;;;;5119751;27;20537;-80
2022/01/11 03:12:00;;;;;;;359.63;45.58;;;-0.60;99.90;;;;;;5111141;27;20047;-81
2022/01/11 03:14:26;;;;;;;210.73;35.92;;;-0.60;99.90;;;;;;5113957;28;20065;-80
2022/01/11 03:16:53;;;;;;;366.90;47.85;;;-0.60;99.90;;;;;;5122417;27;20281;-81
2022/01/11 03:19:19;;;;;;;359.98;46.33;;;-0.60;99.90;;;;;;5117466;27;20401;-79
2022/01/11 03:21:46;;;;;;;148.55;31.50;;;-0.60;99.90;;;;;;5129131;27;20051;-80
2022/01/11 03:24:12;;;;;;;204.40;33.28;;;-0.60;99.90;;;;;;5115021;27;20054;-79
2022/01/11 03:26:40;;;;;;;243.07;38.65;;;-0.60;99.90;;;;;;5124264;27;20051;-80
2022/01/11 03:29:06;;;;;;;98.90;31.00;;;-0.60;99.90;;;;;;5126822;27;20127;-80
2022/01/11 03:31:33;;;;;;;211.07;34.20;;;-0.60;99.90;;;;;;5114120;28;20406;-80
2022/01/11 03:34:00;;;;;;;302.80;44.13;;;-0.60;99.90;;;;;;5115054;28;20055;-80
2022/01/11 03:36:26;;;;;;;211.55;35.25;;;-0.60;99.90;;;;;;5131124;28;20051;-80
2022/01/11 03:38:53;;;;;;;332.15;44.05;;;-0.60;99.90;;;;;;5114659;28;20040;-81
2022/01/11 03:41:19;;;;;;;321.30;43.60;;;-0.70;99.90;;;;;;5120939;28;20047;-79
2022/01/11 03:43:46;;;;;;;376.77;52.72;;;-0.70;99.90;;;;;;5119808;28;20467;-79
2022/01/11 03:46:12;;;;;;;215.05;32.95;;;-0.70;99.90;;;;;;5122046;28;20044;-79
2022/01/11 03:48:39;;;;;;;157.75;31.67;;;-0.80;99.90;;;;;;5120952;28;20047;-80
2022/01/11 03:51:05;;;;;;;153.55;32.65;;;-0.70;99.90;;;;;;5114049;27;20051;-80
2022/01/11 03:53:43;;;;;;;311.15;44.75;;;-0.70;99.90;;;;;;5122809;27;20066;-80
2022/01/11 03:56:22;;;;;;;305.20;46.63;;;-0.70;99.90;;;;;;5131986;27;20402;-81
2022/01/11 03:58:48;;;;;;;156.27;31.67;;;-0.70;99.90;;;;;;5118423;27;20482;-81
2022/01/11 04:01:15;;;;;;;161.00;34.13;;;-0.70;99.90;;;;;;5119775;27;20051;-80
2022/01/11 04:03:41;;;;;;;289.75;43.20;;;-0.70;99.90;;;;;;5127020;27;20039;-81
2022/01/11 04:06:08;;;;;;;164.63;35.30;;;-0.70;99.90;;;;;;5123072;27;20039;-81
2022/01/11 04:08:35;;;;;;;214.23;34.58;;;-0.60;99.90;;;;;;5122945;27;20040;-81
2022/01/11 04:11:02;;;;;;;131.95;28.20;;;-0.70;99.90;;;;;;5130468;27;20058;-81
2022/01/11 04:13:28;;;;;;;113.43;30.58;;;-0.60;99.90;;;;;;5121003;27;20079;-80
2022/01/11 04:15:55;;;;;;;200.15;35.25;;;-0.70;99.90;;;;;;5122128;27;20120;-81
2022/01/11 04:18:21;;;;;;;198.00;33.45;;;-0.70;99.90;;;;;;5127325;27;20047;-81
2022/01/11 04:20:48;;;;;;;180.85;34.03;;;-0.70;99.90;;;;;;5116412;27;20063;-81
2022/01/11 04:23:14;;;;;;;188.20;35.58;;;-0.70;99.90;;;;;;5133319;27;20125;-80
2022/01/11 04:25:41;;;;;;;88.80;26.77;;;-0.70;99.90;;;;;;5120790;27;20053;-81
2022/01/11 04:28:07;;;;;;;103.10;30.88;;;-0.70;99.90;;;;;;5117794;27;20061;-80
2022/01/11 04:30:34;;;;;;;122.85;28.85;;;-0.70;99.90;;;;;;5118145;27;20043;-80
2022/01/11 04:33:01;;;;;;;193.65;35.03;;;-0.70;99.90;;;;;;5128523;27;20115;-80
2022/01/11 04:35:27;;;;;;;158.80;29.08;;;-0.80;99.90;;;;;;5121546;27;20043;-81
2022/01/11 04:37:54;;;;;;;133.25;28.33;;;-0.80;99.90;;;;;;5118334;27;20055;-81
2022/01/11 04:40:20;;;;;;;176.82;32.60;;;-0.80;99.90;;;;;;5117183;27;20043;-81
2022/01/11 04:42:47;;;;;;;133.10;28.38;;;-0.80;99.90;;;;;;5117648;27;20053;-81
2022/01/11 04:45:15;;;;;;;108.60;30.15;;;-0.80;99.90;;;;;;5133507;27;20051;-81
2022/01/11 04:47:41;;;;;;;76.00;27.48;;;-0.70;99.90;;;;;;5129263;27;20129;-81
2022/01/11 04:50:08;;;;;;;65.47;25.55;;;-0.80;99.90;;;;;;5127577;27;20065;-81
2022/01/11 04:52:35;;;;;;;108.60;26.48;;;-0.80;99.90;;;;;;5126070;27;20096;-80
2022/01/11 04:55:02;;;;;;;137.27;34.53;;;-0.80;99.90;;;;;;5137239;27;20083;-81
2022/01/11 04:57:28;;;;;;;123.53;29.00;;;-0.80;99.90;;;;;;5135166;27;20047;-80
2022/01/11 04:59:55;;;;;;;133.88;29.48;;;-0.70;99.90;;;;;;5137660;27;20047;-81
2022/01/11 05:02:22;;;;;;;94.45;26.73;;;-0.80;99.90;;;;;;5127086;27;20049;-81
2022/01/11 05:04:49;;;;;;;104.55;28.15;;;-0.80;99.90;;;;;;5120083;27;20051;-81
2022/01/11 05:07:15;;;;;;;113.80;26.52;;;-0.90;99.90;;;;;;5138221;27;20047;-80
2022/01/11 05:09:42;;;;;;;81.53;25.52;;;-0.90;99.90;;;;;;5123251;27;20047;-81
2022/01/11 05:12:08;;;;;;;102.68;28.35;;;-1.00;99.90;;;;;;5131083;27;20126;-81
2022/01/11 05:14:35;;;;;;;133.27;28.60;;;-0.90;99.90;;;;;;5137552;27;20047;-81
2022/01/11 05:17:01;;;;;;;50.42;25.52;;;-0.90;99.90;;;;;;5140570;27;20054;-85
2022/01/11 05:19:28;;;;;;;83.95;27.27;;;-0.90;99.90;;;;;;5124628;27;20401;-82
2022/01/11 05:21:54;;;;;;;137.88;31.15;;;-0.90;99.90;;;;;;5132147;27;20051;-80
2022/01/11 05:24:21;;;;;;;60.05;24.98;;;-0.90;99.90;;;;;;5116622;27;20249;-80
2022/01/11 05:26:48;;;;;;;95.65;26.45;;;-0.90;99.90;;;;;;5120910;27;20050;-81
2022/01/11 05:29:14;;;;;;;111.15;26.92;;;-0.90;99.90;;;;;;5135744;27;20047;-81
2022/01/11 05:31:41;;;;;;;71.93;26.70;;;-0.90;99.90;;;;;;5133263;27;20043;-81
2022/01/11 05:34:07;;;;;;;102.97;25.98;;;-0.90;99.90;;;;;;5133926;27;20051;-81
2022/01/11 05:36:34;;;;;;;108.85;26.58;;;-0.90;99.90;;;;;;5131684;27;20112;-81
2022/01/11 05:39:00;;;;;;;167.70;30.20;;;-0.90;99.90;;;;;;5135409;27;20046;-81
2022/01/11 05:41:27;;;;;;;108.57;28.13;;;-0.90;99.90;;;;;;5133821;27;20042;-81
2022/01/11 05:43:53;;;;;;;116.03;30.02;;;-0.90;99.90;;;;;;5133141;27;20050;-81
2022/01/11 05:46:20;;;;;;;109.43;29.90;;;-0.90;99.90;;;;;;5132677;27;20050;-81
2022/01/11 05:48:46;;;;;;;110.18;30.00;;;-0.90;99.90;;;;;;5133793;27;20058;-81
2022/01/11 05:51:14;;;;;;;88.20;30.48;;;-0.90;99.90;;;;;;5150956;27;20046;-81
2022/01/11 05:53:41;;;;;;;66.07;30.40;;;-0.90;99.90;;;;;;5133097;27;20043;-82
2022/01/11 05:56:07;;;;;;;74.57;29.92;;;-0.90;99.90;;;;;;5152121;27;20051;-81
2022/01/11 05:58:34;;;;;;;101.45;29.77;;;-0.90;99.90;;;;;;5132749;27;20039;-80
2022/01/11 06:01:00;;;;;;;71.60;31.10;;;-0.90;99.90;;;;;;5131336;27;20042;-80
2022/01/11 06:03:27;;;;;;;71.22;29.42;;;-0.80;99.90;;;;;;5133275;27;20046;-80
2022/01/11 06:05:53;;;;;;;85.13;30.67;;;-0.80;99.90;;;;;;5125695;27;20489;-81
2022/01/11 06:08:20;;;;;;;85.60;32.28;;;-0.80;99.90;;;;;;5133588;27;20478;-81
2022/01/11 06:10:46;;;;;;;131.18;36.10;;;-0.80;99.90;;;;;;5133569;27;20061;-81
2022/01/11 06:13:13;;;;;;;128.65;33.20;;;-0.80;99.90;;;;;;5133769;27;20039;-80
2022/01/11 06:15:40;;;;;;;75.70;30.23;;;-0.80;99.90;;;;;;5151044;27;20038;-79
2022/01/11 06:18:07;;;;;;;61.60;26.55;;;-0.80;99.90;;;;;;5131172;27;20087;-81
2022/01/11 06:20:34;;;;;;;132.30;33.42;;;-0.90;99.90;;;;;;5132259;27;20043;-80
2022/01/11 06:23:00;;;;;;;136.05;30.83;;;-0.90;99.90;;;;;;5133462;27;20039;-81
2022/01/11 06:25:27;;;;;;;139.88;31.80;;;-0.90;99.90;;;;;;5132000;27;20046;-80
2022/01/11 06:27:54;;;;;;;154.95;31.67;;;-0.90;99.90;;;;;;5134266;27;20056;-80
2022/01/11 06:30:21;;;;;;;130.82;30.92;;;-0.90;99.90;;;;;;5131911;27;20042;-80
2022/01/11 06:32:47;;;;;;;111.82;28.42;;;-0.90;99.90;;;;;;5132190;27;20410;-81
2022/01/11 06:35:14;;;;;;;190.20;34.92;;;-0.80;99.90;;;;;;5132168;27;20092;-81
2022/01/11 06:37:40;;;;;;;140.10;33.35;;;-0.90;99.90;;;;;;5133143;27;20043;-80
2022/01/11 06:40:08;;;;;;;241.98;40.30;;;-0.80;99.90;;;;;;5133650;27;20042;-80
2022/01/11 06:42:35;;;;;;;109.32;34.50;;;-0.90;99.90;;;;;;5132425;27;20050;-81
2022/01/11 06:45:01;;;;;;;241.43;43.40;;;-0.80;99.90;;;;;;5133777;27;20038;-80
2022/01/11 06:47:28;;;;;;;164.05;37.20;;;-0.80;99.90;;;;;;5130796;27;20043;-81
2022/01/11 06:49:54;;;;;;;201.88;42.58;;;-0.80;99.90;;;;;;5133169;27;20043;-80
2022/01/11 06:52:21;;;;;;;210.75;43.05;;;-0.80;99.90;;;;;;5132427;27;20050;-81
2022/01/11 06:54:47;;;;;;;193.43;41.33;;;-0.80;99.90;;;;;;5130726;27;20134;-81
2022/01/11 06:57:14;;;;;;;165.90;39.10;;;-0.80;99.90;;;;;;5131393;27;20141;-81
2022/01/11 06:59:41;;;;;;;249.98;41.65;;;-0.70;99.90;;;;;;5130096;27;20050;-81
2022/01/11 07:02:08;;;;;;;150.18;40.75;;;-0.60;99.90;;;;;;5133753;27;20038;-80
2022/01/11 07:04:36;;;;;;;229.32;46.95;;;-0.70;99.90;;;;;;5131738;27;20034;-81
2022/01/11 07:07:03;;;;;;;196.82;42.83;;;-0.80;99.90;;;;;;5130008;27;20043;-81
2022/01/11 07:09:29;;;;;;;130.85;38.55;;;-0.70;99.90;;;;;;5131489;27;20047;-82
2022/01/11 07:11:56;;;;;;;184.82;43.38;;;-0.70;99.90;;;;;;5148978;27;20042;-82
2022/01/11 07:14:22;;;;;;;113.88;36.03;;;-0.70;99.90;;;;;;5130695;27;20053;-82
2022/01/11 07:16:49;;;;;;;149.93;40.88;;;-0.70;99.90;;;;;;5133897;27;20049;-81
2022/01/11 07:19:16;;;;;;;227.82;47.25;;;-0.70;99.90;;;;;;5132135;27;20069;-82
2022/01/11 07:21:44;;;;;;;177.10;42.20;;;-0.60;99.90;;;;;;5132575;27;20390;-79
2022/01/11 07:24:10;;;;;;;147.57;40.33;;;-0.60;99.90;;;;;;5132854;27;20047;-80
2022/01/11 07:26:37;;;;;;;198.40;44.80;;;-0.60;99.90;;;;;;5127540;27;20043;-80
2022/01/11 07:29:05;;;;;;;182.75;43.90;;;-0.60;99.90;;;;;;5132125;27;20043;-79
2022/01/11 07:31:32;;;;;;;191.75;47.88;;;-0.50;99.90;;;;;;5147154;27;20043;-79
2022/01/11 07:33:58;;;;;;;170.13;46.22;;;-0.50;99.90;;;;;;5127570;27;20054;-81
2022/01/11 07:36:25;;;;;;;161.63;41.05;;;-0.50;99.90;;;;;;5129608;27;20043;-81
2022/01/11 07:38:52;;;;;;;184.95;47.90;;;-0.50;99.90;;;;;;5130122;27;20043;-81
2022/01/11 07:41:18;;;;;;;131.02;39.88;;;-0.50;99.90;;;;;;5129567;27;20537;-81
2022/01/11 07:43:45;;;;;;;180.30;48.28;;;-0.50;99.90;;;;;;5135874;27;20050;-81
2022/01/11 07:46:11;;;;;;;128.80;41.33;;;-0.50;99.90;;;;;;5143090;27;20500;-81
2022/01/11 07:48:38;;;;;;;132.93;43.67;;;-0.50;99.90;;;;;;5133728;27;20485;-81
2022/01/11 07:51:04;;;;;;;93.03;40.25;;;-0.40;99.90;;;;;;5131956;27;20058;-82
2022/01/11 07:53:31;;;;;;;126.68;43.28;;;-0.40;99.90;;;;;;5131027;27;20489;-81
2022/01/11 07:55:57;;;;;;;102.93;43.22;;;-0.50;99.90;;;;;;5131464;27;20038;-80
2022/01/11 07:58:24;;;;;;;106.60;43.63;;;-0.40;99.90;;;;;;5128160;27;20043;-81
2022/01/11 08:00:50;;;;;;;89.78;40.00;;;-0.40;99.90;;;;;;5132704;27;20054;-81
2022/01/11 08:03:17;;;;;;;85.50;41.40;;;-0.40;99.90;;;;;;5127437;27;20059;-81
2022/01/11 08:05:44;;;;;;;80.40;39.38;;;-0.40;99.90;;;;;;5130015;27;20055;-81
2022/01/11 08:08:10;;;;;;;87.72;42.38;;;-0.40;99.90;;;;;;5130683;27;20501;-81
2022/01/11 08:10:37;;;;;;;97.65;41.60;;;-0.30;99.90;;;;;;5131066;27;20069;-81
2022/01/11 08:13:06;;;;;;;72.13;39.97;;;-0.40;99.90;;;;;;5133014;27;20050;-81
2022/01/11 08:15:32;;;;;;;84.82;41.22;;;-0.30;99.90;;;;;;5131040;27;20039;-80
2022/01/11 08:17:59;;;;;;;81.45;41.92;;;-0.30;99.90;;;;;;5129586;27;20469;-80
2022/01/11 08:20:25;;;;;;;89.88;40.55;;;-0.30;99.90;;;;;;5131476;27;20097;-80
2022/01/11 08:22:53;;;;;;;75.78;39.83;;;-0.30;99.90;;;;;;5131642;27;20043;-79
2022/01/11 08:25:20;;;;;;;88.45;39.65;;;-0.30;99.90;;;;;;5124479;27;20497;-81
2022/01/11 08:27:46;;;;;;;76.03;37.33;;;-0.30;99.90;;;;;;5124304;27;20055;-82
2022/01/11 08:30:13;;;;;;;83.20;37.35;;;-0.30;99.90;;;;;;5151665;27;20038;-80
2022/01/11 08:32:39;;;;;;;76.05;36.60;;;-0.30;99.90;;;;;;5130637;27;20043;-81
2022/01/11 08:35:06;;;;;;;72.07;36.38;;;-0.20;99.90;;;;;;5131124;27;20051;-80
2022/01/11 08:37:32;;;;;;;82.68;36.47;;;-0.20;99.90;;;;;;5133140;27;20057;-81
2022/01/11 08:39:59;;;;;;;70.70;37.10;;;-0.10;99.90;;;;;;5129384;27;20054;-80
2022/01/11 08:42:27;;;;;;;65.60;37.05;;;0.00;99.90;;;;;;5135606;27;20046;-81
2022/01/11 08:44:53;;;;;;;63.67;36.25;;;0.00;99.90;;;;;;5153365;27;20061;-81
2022/01/11 08:47:20;;;;;;;67.78;33.38;;;0.10;99.90;;;;;;5134027;27;20050;-80
2022/01/11 08:49:46;;;;;;;69.32;37.03;;;0.10;99.90;;;;;;5133634;27;20050;-82
2022/01/11 08:52:13;;;;;;;68.20;34.15;;;0.20;99.90;;;;;;5124761;27;20043;-80
2022/01/11 08:54:39;;;;;;;71.63;34.83;;;0.30;99.90;;;;;;5131217;27;20190;-80
2022/01/11 08:57:06;;;;;;;68.03;34.92;;;0.40;99.90;;;;;;5135279;27;20046;-82
2022/01/11 08:59:33;;;;;;;64.38;33.75;;;0.50;99.90;;;;;;5127229;27;20047;-81
2022/01/11 09:01:59;;;;;;;67.13;33.50;;;0.50;99.90;;;;;;5125101;27;20043;-80
2022/01/11 09:04:26;;;;;;;55.22;31.00;;;0.60;99.90;;;;;;5124938;27;20054;-82
2022/01/11 09:06:53;;;;;;;52.20;28.92;;;0.60;99.90;;;;;;5135371;27;20108;-81
2022/01/11 09:09:20;;;;;;;54.15;30.30;;;0.60;99.90;;;;;;5153834;27;20125;-81
2022/01/11 09:11:47;;;;;;;53.40;28.58;;;0.50;99.90;;;;;;5123339;27;20049;-80
2022/01/11 09:14:13;;;;;;;44.15;28.10;;;0.60;99.90;;;;;;5118822;27;20063;-80
2022/01/11 09:16:40;;;;;;;53.88;29.60;;;0.60;99.90;;;;;;5117657;27;20047;-80
2022/01/11 09:19:06;;;;;;;45.53;27.52;;;0.50;99.90;;;;;;5133905;27;20043;-80
2022/01/11 09:21:33;;;;;;;57.30;28.00;;;0.40;99.90;;;;;;5128121;27;20046;-80
2022/01/11 09:24:00;;;;;;;49.50;28.40;;;0.40;99.90;;;;;;5131267;27;20046;-80
2022/01/11 09:26:26;;;;;;;60.58;29.20;;;0.50;99.90;;;;;;5134090;27;20047;-80
2022/01/11 09:28:53;;;;;;;50.47;28.63;;;0.50;99.90;;;;;;5131198;27;20042;-80
2022/01/11 09:31:20;;;;;;;47.40;27.55;;;0.50;99.90;;;;;;5134525;27;20053;-79
2022/01/11 09:33:46;;;;;;;47.97;29.05;;;0.50;99.90;;;;;;5133658;27;20058;-78
2022/01/11 09:36:13;;;;;;;51.65;27.70;;;0.50;99.90;;;;;;5154052;27;20042;-78
2022/01/11 09:38:39;;;;;;;48.25;28.35;;;0.50;99.90;;;;;;5129287;27;20485;-77
2022/01/11 09:41:06;;;;;;;54.75;27.92;;;0.50;99.90;;;;;;5133199;27;20039;-78
2022/01/11 09:43:32;;;;;;;43.78;27.35;;;0.60;99.90;;;;;;5134616;27;20130;-78
2022/01/11 09:45:59;;;;;;;55.58;28.33;;;0.50;99.90;;;;;;5127004;27;20047;-78
2022/01/11 09:48:25;;;;;;;41.10;27.33;;;0.60;99.90;;;;;;5139175;27;20046;-79
2022/01/11 09:50:52;;;;;;;49.90;26.80;;;0.60;99.90;;;;;;5142272;27;20047;-79
2022/01/11 09:53:18;;;;;;;41.60;25.83;;;0.60;99.90;;;;;;5121238;27;20039;-79
2022/01/11 09:55:45;;;;;;;49.33;28.35;;;0.60;99.90;;;;;;5123688;27;20043;-79
2022/01/11 09:58:12;;;;;;;48.13;27.42;;;0.70;99.90;;;;;;5130526;27;20111;-79
2022/01/11 10:00:38;;;;;;;51.35;26.55;;;0.70;99.90;;;;;;5143463;27;20047;-79
2022/01/11 10:03:05;;;;;;;43.53;27.02;;;0.80;99.90;;;;;;5129996;27;20051;-79
2022/01/11 10:05:32;;;;;;;44.47;27.08;;;0.90;99.90;;;;;;5125327;27;20099;-79
2022/01/11 10:07:59;;;;;;;48.72;25.90;;;0.90;99.90;;;;;;5151757;27;20489;-79
2022/01/11 10:10:26;;;;;;;45.88;27.13;;;0.90;99.90;;;;;;5153419;27;20035;-79
2022/01/11 10:12:52;;;;;;;45.95;27.10;;;1.00;99.90;;;;;;5132067;27;20054;-78
2022/01/11 10:15:19;;;;;;;46.55;26.17;;;1.10;99.90;;;;;;5133859;27;20050;-79
2022/01/11 10:17:46;;;;;;;48.35;25.63;;;1.10;99.90;;;;;;5133592;27;20063;-80
2022/01/11 10:20:13;;;;;;;41.40;26.65;;;1.10;99.90;;;;;;5132462;27;20373;-79
2022/01/11 10:22:39;;;;;;;44.33;25.95;;;1.00;99.90;;;;;;5133716;27;20047;-80
2022/01/11 10:25:06;;;;;;;45.30;23.60;;;1.00;99.90;;;;;;5154018;27;20055;-79
2022/01/11 10:27:33;;;;;;;38.67;24.67;;;0.90;99.90;;;;;;5142316;27;20058;-79
2022/01/11 10:29:59;;;;;;;49.42;25.75;;;0.90;99.90;;;;;;5132999;27;20466;-78
2022/01/11 10:32:26;;;;;;;46.20;26.08;;;0.90;99.90;;;;;;5131750;27;20394;-79
2022/01/11 10:34:52;;;;;;;41.17;25.95;;;0.90;99.90;;;;;;5130935;27;20054;-80
2022/01/11 10:37:19;;;;;;;40.92;25.70;;;0.90;99.90;;;;;;5133842;27;20046;-79
2022/01/11 10:39:45;;;;;;;46.80;24.73;;;0.90;99.90;;;;;;5132484;27;20054;-79
2022/01/11 10:42:14;;;;;;;50.55;26.10;;;1.00;99.90;;;;;;5130760;27;20051;-79
2022/01/11 10:44:40;;;;;;;51.13;26.63;;;1.00;99.90;;;;;;5130550;27;20043;-80
2022/01/11 10:47:07;;;;;;;45.75;23.10;;;0.90;99.90;;;;;;5150263;27;20050;-79
2022/01/11 10:49:35;;;;;;;39.85;24.42;;;1.00;99.90;;;;;;5148078;27;20051;-79
2022/01/11 10:52:01;;;;;;;51.35;26.80;;;1.00;99.90;;;;;;5130374;27;20228;-79
2022/01/11 10:54:28;;;;;;;43.53;24.40;;;1.00;99.90;;;;;;5132090;27;20070;-80
2022/01/11 10:56:54;;;;;;;48.25;24.92;;;1.10;99.90;;;;;;5131354;27;20050;-79
2022/01/11 10:59:21;;;;;;;40.17;26.17;;;1.20;99.90;;;;;;5132003;27;20055;-80
2022/01/11 11:01:48;;;;;;;42.17;24.83;;;1.40;99.90;;;;;;5150301;27;20054;-79
2022/01/11 11:04:15;;;;;;;36.85;23.05;;;1.40;99.90;;;;;;5127716;27;20074;-79
2022/01/11 11:06:41;;;;;;;39.30;24.88;;;1.30;99.90;;;;;;5130064;27;20385;-79
2022/01/11 11:09:08;;;;;;;36.60;21.30;;;1.40;99.90;;;;;;5129616;27;20054;-79
2022/01/11 11:11:34;;;;;;;37.25;23.88;;;1.30;99.90;;;;;;5129945;27;20055;-80
2022/01/11 11:14:01;;;;;;;33.85;22.60;;;1.30;99.90;;;;;;5131364;27;20047;-80
2022/01/11 11:16:29;;;;;;;42.75;24.48;;;1.30;99.90;;;;;;5150908;27;20050;-79
2022/01/11 11:18:57;;;;;;;40.15;23.52;;;1.30;99.90;;;;;;5127105;27;20053;-79
2022/01/11 11:21:23;;;;;;;37.88;21.95;;;1.40;99.90;;;;;;5128839;27;20047;-80
2022/01/11 11:23:50;;;;;;;34.78;22.23;;;1.40;99.90;;;;;;5125207;27;20513;-80
2022/01/11 11:26:16;;;;;;;40.28;22.77;;;1.50;99.90;;;;;;5128027;27;20482;-79
2022/01/11 11:28:43;;;;;;;42.88;24.95;;;1.60;99.90;;;;;;5128732;27;20055;-79
2022/01/11 11:31:10;;;;;;;46.20;24.85;;;1.70;99.90;;;;;;5125126;27;20039;-80
2022/01/11 11:33:36;;;;;;;34.78;23.85;;;1.80;99.90;;;;;;5127768;27;20044;-80
2022/01/11 11:36:03;;;;;;;31.83;21.55;;;2.00;99.90;;;;;;5124606;28;20058;-79
2022/01/11 11:38:30;;;;;;;29.58;21.13;;;2.10;99.90;;;;;;5125929;28;20051;-80
2022/01/11 11:40:56;;;;;;;38.47;20.88;;;2.20;99.90;;;;;;5126691;28;20047;-80
2022/01/11 11:43:23;;;;;;;32.42;20.60;;;2.30;99.90;;;;;;5126066;28;20071;-80
2022/01/11 11:45:49;;;;;;;29.45;21.23;;;2.30;99.90;;;;;;5117636;28;20048;-80
2022/01/11 11:48:16;;;;;;;28.88;18.10;;;2.50;99.90;;;;;;5119695;28;20058;-80
2022/01/11 11:50:42;;;;;;;30.65;19.25;;;2.50;99.90;;;;;;5125557;28;20070;-80
2022/01/11 11:53:09;;;;;;;32.70;20.98;;;2.60;99.90;;;;;;5123541;28;20054;-80
2022/01/11 11:55:35;;;;;;;25.42;18.05;;;2.60;99.90;;;;;;5122064;28;20044;-80
2022/01/11 11:58:02;;;;;;;31.17;17.83;;;2.70;99.90;;;;;;5123448;28;20048;-79
2022/01/11 12:00:28;;;;;;;31.48;17.13;;;2.70;99.90;;;;;;5123751;28;20440;-80
2022/01/11 12:02:55;;;;;;;35.08;17.45;;;2.70;99.90;;;;;;5126089;28;20484;-80
2022/01/11 12:05:22;;;;;;;26.90;17.85;;;2.70;99.90;;;;;;5125935;28;20043;-81
2022/01/11 12:07:49;;;;;;;32.42;17.92;;;2.80;99.90;;;;;;5121687;28;20051;-80
2022/01/11 12:10:19;;;;;;;30.42;16.95;;;2.80;99.90;;;;;;5122429;28;20087;-80
2022/01/11 12:12:49;;;;;;;34.08;17.58;;;2.80;99.90;;;;;;5119314;27;20196;-80
2022/01/11 12:15:15;;;;;;;31.65;18.55;;;2.90;99.90;;;;;;5127367;27;20130;-80
2022/01/11 12:17:43;;;;;;;28.35;17.17;;;3.00;99.90;;;;;;5127546;27;20039;-80
2022/01/11 12:20:09;;;;;;;27.85;16.38;;;3.00;99.90;;;;;;5125965;27;20054;-80
2022/01/11 12:22:41;;;;;;;20.98;14.35;;;3.00;99.90;;;;;;5121098;27;20051;-81